Jrs Mira — V2FS4 — position and weather

sailwx.info

Track history (hours):
 
Tides and Currents Weather Stations Pressure Air Temp Water Temp Dewpoint Dewpoint Depression Visibility Wind Speed Wind Dir Waves Ship Positions

Jrs Mira

Last reported at 2014-Jul-30 06:16 UTC. Time now 2014-Jul-30 07:04 UTC.
Position N 53°30' W 003°56'.

Length 107 m; draft 8.2 m.

Type: Cargo ship. MMSI: 305780000.

Date/timePositionNaut miles runAvg speedWind from/ knotsBaromVisibWave heightAir tempDewpointWater temp
2014-Jul-30 06:16N 53°30' W 003°56'  
2014-Jul-26 08:26N 39°01' W 009°53'1210.7
2014-Jul-26 07:21N 38°50' W 009°52'910.2
2014-Jul-26 06:26N 38°41' W 009°51'1010.8
2014-Jul-26 05:30N 38°31' W 009°48'1211.2
2014-Jul-26 04:24N 38°19' W 009°44'911.2
2014-Jul-26 03:33N 38°10' W 009°41'1110.8
2014-Jul-26 02:34N 37°59' W 009°39'1110.5
2014-Jul-26 01:33N 37°49' W 009°36'1110.6
2014-Jul-26 00:33N 37°38' W 009°32'1010.3
2014-Jul-25 23:33N 37°29' W 009°29'1110.4
2014-Jul-25 22:27N 37°17' W 009°26'1010.3
2014-Jul-25 21:26N 37°07' W 009°23'1210.2
2014-Jul-25 20:14N 36°55' W 009°20'8 9.5
2014-Jul-25 19:22N 36°48' W 009°14'9 9.8
2014-Jul-25 18:24N 36°43' W 009°04'1110.8
2014-Jul-25 17:23N 36°40' W 008°51'1310.5
2014-Jul-25 16:08N 36°36' W 008°36'910.3
2014-Jul-25 15:17N 36°33' W 008°25'5811.1
2014-Jul-25 10:04N 36°15' W 007°17'9510.0
2014-Jul-25 00:33N 35°57' W 005°22'5 4.6
2014-Jul-24 23:33N 35°54' W 005°18'0 0.0
2014-Jul-24 22:33N 35°54' W 005°18'0 0.0
2014-Jul-24 21:30N 35°54' W 005°18'0 0.0
2014-Jul-24 20:33N 35°54' W 005°18'0 0.1
2014-Jul-24 19:33N 35°54' W 005°19'1 1.3
2014-Jul-24 18:25N 35°55' W 005°18'209 9.9
2014-Jul-23 21:17N 36°33' W 001°04'810.9
2014-Jul-23 20:31N 36°34' W 000°54'1111.1
2014-Jul-23 19:33N 36°36' W 000°40'1110.6
2014-Jul-23 18:32N 36°37' W 000°27'1110.7
2014-Jul-23 17:32N 36°39' W 000°14'1111.2
2014-Jul-23 16:33N 36°40' W 000°00'1111.1
2014-Jul-23 15:33N 36°42' E 000°14'1110.7
2014-Jul-23 14:34N 36°43' E 000°27'1110.8
2014-Jul-23 13:33N 36°45' E 000°40'1110.9
2014-Jul-23 12:33N 36°46' E 000°54'1110.7
2014-Jul-23 11:34N 36°48' E 001°07'1310.9
2014-Jul-23 10:20N 36°49' E 001°24'910.9
2014-Jul-23 09:31N 36°50' E 001°34'1110.9
2014-Jul-23 08:33N 36°52' E 001°47'1110.9
2014-Jul-23 07:33N 36°53' E 002°01'1110.5
2014-Jul-23 06:33N 36°55' E 002°14'1110.6
2014-Jul-23 05:29N 36°57' E 002°28'1010.4
2014-Jul-23 04:33N 36°59' E 002°40'1010.2
2014-Jul-23 03:33N 37°01' E 002°52'1010.0
2014-Jul-23 02:33N 37°04' E 003°04'1010.1
2014-Jul-23 01:32N 37°06' E 003°17'2510.6
2014-Jul-22 23:11N 37°12' E 003°47'1810.7
2014-Jul-22 21:33N 37°15' E 004°09'3310.8
2014-Jul-22 18:31N 37°12' E 004°50'36910.2
2014-Jul-21 06:15N 36°59' E 012°32'810.8
2014-Jul-21 05:33N 36°58' E 012°41'1010.1
2014-Jul-21 04:33N 36°54' E 012°53'1110.7
2014-Jul-21 03:33N 36°51' E 013°06'1111.2
2014-Jul-21 02:33N 36°47' E 013°19'1111.1
2014-Jul-21 01:33N 36°44' E 013°32'1211.6
2014-Jul-21 00:33N 36°40' E 013°46'1111.2
2014-Jul-20 23:33N 36°37' E 013°59'1111.1
2014-Jul-20 22:33N 36°34' E 014°12'1111.2
2014-Jul-20 21:33N 36°30' E 014°25'1110.7
2014-Jul-20 20:33N 36°28' E 014°38'1110.6
2014-Jul-20 19:33N 36°29' E 014°52'1110.8
2014-Jul-20 18:33N 36°31' E 015°05'  
Track history (hours):
 
Tides and Currents Weather Stations Pressure Air Temp Water Temp Dewpoint Dewpoint Depression Visibility Wind Speed Wind Dir Waves Ship Positions

Jrs Mira

Last reported at 2014-Jul-30 06:16 UTC. Time now 2014-Jul-30 07:04 UTC.
Position N 53°30' W 003°56'.

Length 107 m; draft 8.2 m.

Type: Cargo ship. MMSI: 305780000.

Date/timePositionNaut miles runAvg speedWind from/ knotsBaromVisibWave heightAir tempDewpointWater temp
2014-Jul-30 06:16N 53°30' W 003°56'  
2014-Jul-26 08:26N 39°01' W 009°53'1210.7
2014-Jul-26 07:21N 38°50' W 009°52'910.2
2014-Jul-26 06:26N 38°41' W 009°51'1010.8
2014-Jul-26 05:30N 38°31' W 009°48'1211.2
2014-Jul-26 04:24N 38°19' W 009°44'911.2
2014-Jul-26 03:33N 38°10' W 009°41'1110.8
2014-Jul-26 02:34N 37°59' W 009°39'1110.5
2014-Jul-26 01:33N 37°49' W 009°36'1110.6
2014-Jul-26 00:33N 37°38' W 009°32'1010.3
2014-Jul-25 23:33N 37°29' W 009°29'1110.4
2014-Jul-25 22:27N 37°17' W 009°26'1010.3
2014-Jul-25 21:26N 37°07' W 009°23'1210.2
2014-Jul-25 20:14N 36°55' W 009°20'8 9.5
2014-Jul-25 19:22N 36°48' W 009°14'9 9.8
2014-Jul-25 18:24N 36°43' W 009°04'1110.8
2014-Jul-25 17:23N 36°40' W 008°51'1310.5
2014-Jul-25 16:08N 36°36' W 008°36'910.3
2014-Jul-25 15:17N 36°33' W 008°25'5811.1
2014-Jul-25 10:04N 36°15' W 007°17'9510.0
2014-Jul-25 00:33N 35°57' W 005°22'5 4.6
2014-Jul-24 23:33N 35°54' W 005°18'0 0.0
2014-Jul-24 22:33N 35°54' W 005°18'0 0.0
2014-Jul-24 21:30N 35°54' W 005°18'0 0.0
2014-Jul-24 20:33N 35°54' W 005°18'0 0.1
2014-Jul-24 19:33N 35°54' W 005°19'1 1.3
2014-Jul-24 18:25N 35°55' W 005°18'209 9.9
2014-Jul-23 21:17N 36°33' W 001°04'810.9
2014-Jul-23 20:31N 36°34' W 000°54'1111.1
2014-Jul-23 19:33N 36°36' W 000°40'1110.6
2014-Jul-23 18:32N 36°37' W 000°27'1110.7
2014-Jul-23 17:32N 36°39' W 000°14'1111.2
2014-Jul-23 16:33N 36°40' W 000°00'1111.1
2014-Jul-23 15:33N 36°42' E 000°14'1110.7
2014-Jul-23 14:34N 36°43' E 000°27'1110.8
2014-Jul-23 13:33N 36°45' E 000°40'1110.9
2014-Jul-23 12:33N 36°46' E 000°54'1110.7
2014-Jul-23 11:34N 36°48' E 001°07'1310.9
2014-Jul-23 10:20N 36°49' E 001°24'910.9
2014-Jul-23 09:31N 36°50' E 001°34'1110.9
2014-Jul-23 08:33N 36°52' E 001°47'1110.9
2014-Jul-23 07:33N 36°53' E 002°01'1110.5
2014-Jul-23 06:33N 36°55' E 002°14'1110.6
2014-Jul-23 05:29N 36°57' E 002°28'1010.4
2014-Jul-23 04:33N 36°59' E 002°40'1010.2
2014-Jul-23 03:33N 37°01' E 002°52'1010.0
2014-Jul-23 02:33N 37°04' E 003°04'1010.1
2014-Jul-23 01:32N 37°06' E 003°17'2510.6
2014-Jul-22 23:11N 37°12' E 003°47'1810.7
2014-Jul-22 21:33N 37°15' E 004°09'3310.8
2014-Jul-22 18:31N 37°12' E 004°50'36910.2
2014-Jul-21 06:15N 36°59' E 012°32'810.8
2014-Jul-21 05:33N 36°58' E 012°41'1010.1
2014-Jul-21 04:33N 36°54' E 012°53'1110.7
2014-Jul-21 03:33N 36°51' E 013°06'1111.2
2014-Jul-21 02:33N 36°47' E 013°19'1111.1
2014-Jul-21 01:33N 36°44' E 013°32'1211.6
2014-Jul-21 00:33N 36°40' E 013°46'1111.2
2014-Jul-20 23:33N 36°37' E 013°59'1111.1
2014-Jul-20 22:33N 36°34' E 014°12'1111.2
2014-Jul-20 21:33N 36°30' E 014°25'1110.7
2014-Jul-20 20:33N 36°28' E 014°38'1110.6
2014-Jul-20 19:33N 36°29' E 014°52'1110.8
2014-Jul-20 18:33N 36°31' E 015°05'  

Dump ship's entire track history